Time;durP1;ratioP1;P1;durP2;ratioP2;P2;SDS_P1;SDS_P2;PMS_P1;PMS_P2;Temp;Humidity;BMP_temperature;BMP_pressure;BME280_temperature;BME280_humidity;BME280_pressure;Samples;Min_cycle;Max_cycle;Signal;HPM_P1;HPM_P2
2022/12/01 00:00:40;;;;;;;44.35;25.42;;;5.30;99.90;;;;;;5115340;28;20027;-66
2022/12/01 00:03:06;;;;;;;47.17;25.98;;;5.40;99.90;;;;;;5115129;28;20020;-66
2022/12/01 00:05:32;;;;;;;41.90;23.85;;;5.30;99.90;;;;;;5114991;28;20365;-66
2022/12/01 00:07:58;;;;;;;36.13;22.13;;;5.20;99.90;;;;;;5115005;28;20381;-66
2022/12/01 00:10:27;;;;;;;36.72;21.42;;;5.20;99.90;;;;;;5114884;28;20032;-66
2022/12/01 00:13:01;;;;;;;33.65;20.30;;;5.20;99.90;;;;;;5114958;28;20027;-66
2022/12/01 00:15:29;;;;;;;36.30;21.42;;;5.20;99.90;;;;;;5114835;28;20052;-66
2022/12/01 00:17:56;;;;;;;36.40;20.27;;;5.20;99.90;;;;;;5115080;28;20020;-66
2022/12/01 00:20:23;;;;;;;29.15;19.92;;;5.10;99.90;;;;;;5114823;28;20448;-66
2022/12/01 00:22:49;;;;;;;32.03;19.38;;;5.20;99.90;;;;;;5114953;28;20031;-66
2022/12/01 00:25:17;;;;;;;28.65;19.27;;;5.20;99.90;;;;;;5114779;28;20393;-66
2022/12/01 00:27:46;;;;;;;34.25;19.45;;;5.10;99.90;;;;;;5115055;28;20019;-66
2022/12/01 00:30:12;;;;;;;36.22;21.92;;;5.10;99.90;;;;;;5115122;28;20052;-66
2022/12/01 00:32:38;;;;;;;31.67;20.13;;;5.10;99.90;;;;;;5114757;28;20108;-66
2022/12/01 00:35:05;;;;;;;26.67;17.52;;;5.10;99.90;;;;;;5114828;28;20106;-66
2022/12/01 00:37:33;;;;;;;26.35;17.02;;;5.20;99.90;;;;;;5114786;28;20074;-66
2022/12/01 00:39:59;;;;;;;26.60;16.95;;;5.30;99.90;;;;;;5114873;28;20020;-66
2022/12/01 00:42:26;;;;;;;24.48;16.77;;;5.20;99.90;;;;;;5114771;28;20039;-66
2022/12/01 00:44:52;;;;;;;25.38;17.10;;;5.30;99.90;;;;;;5114654;28;20123;-66
2022/12/01 00:47:18;;;;;;;31.80;19.42;;;5.30;99.90;;;;;;5114623;28;20028;-66
2022/12/01 00:49:45;;;;;;;30.60;19.40;;;5.30;99.90;;;;;;5114747;28;20069;-66
2022/12/01 00:52:15;;;;;;;25.95;16.67;;;5.30;99.90;;;;;;5114714;28;20054;-66
2022/12/01 00:54:41;;;;;;;27.88;16.80;;;5.30;99.90;;;;;;5114383;28;20092;-66
2022/12/01 00:57:08;;;;;;;28.90;17.70;;;5.30;99.90;;;;;;5114561;28;20089;-66
2022/12/01 00:59:34;;;;;;;26.63;16.45;;;5.20;99.90;;;;;;5114595;28;20030;-66
2022/12/01 01:02:02;;;;;;;29.13;17.42;;;5.20;99.90;;;;;;5114468;28;20030;-66
2022/12/01 01:04:33;;;;;;;27.75;17.30;;;5.20;99.90;;;;;;5114645;28;20020;-66
2022/12/01 01:06:59;;;;;;;34.83;19.60;;;5.20;99.90;;;;;;5115059;28;20123;-66
2022/12/01 01:09:25;;;;;;;27.20;16.65;;;5.30;99.90;;;;;;5118373;28;20020;-66
2022/12/01 01:11:52;;;;;;;27.48;17.75;;;5.40;99.90;;;;;;5118171;28;20381;-66
2022/12/01 01:14:18;;;;;;;26.77;16.63;;;5.30;99.90;;;;;;5118235;28;20056;-66
2022/12/01 01:16:44;;;;;;;26.88;15.60;;;5.20;99.90;;;;;;5099747;28;20039;-66
2022/12/01 01:19:10;;;;;;;25.10;17.13;;;5.20;99.90;;;;;;5118234;28;20027;-66
2022/12/01 01:21:36;;;;;;;26.58;15.98;;;5.20;99.90;;;;;;5117936;28;20080;-66
2022/12/01 01:24:02;;;;;;;26.23;16.55;;;5.30;99.90;;;;;;5118197;28;20063;-66
2022/12/01 01:26:30;;;;;;;29.95;17.52;;;5.30;99.90;;;;;;5118167;28;20078;-66
2022/12/01 01:29:01;;;;;;;30.95;18.15;;;5.30;99.90;;;;;;5117992;28;20055;-66
2022/12/01 01:31:29;;;;;;;32.05;19.00;;;5.30;99.90;;;;;;5117940;28;20085;-66
2022/12/01 01:33:56;;;;;;;29.05;18.05;;;5.40;99.90;;;;;;5117864;28;20030;-66
2022/12/01 01:36:23;;;;;;;33.45;19.92;;;5.40;99.90;;;;;;5117806;28;20028;-66
2022/12/01 01:38:53;;;;;;;47.65;25.83;;;5.40;99.90;;;;;;5117837;28;20049;-66
2022/12/01 01:41:20;;;;;;;40.53;22.30;;;5.30;99.90;;;;;;5117778;28;20023;-66
2022/12/01 01:43:48;;;;;;;45.17;23.75;;;5.10;99.90;;;;;;5117634;28;20028;-66
2022/12/01 01:46:24;;;;;;;51.42;26.67;;;5.20;99.90;;;;;;5117626;28;20469;-66
2022/12/01 01:49:14;;;;;;;65.55;33.78;;;5.20;99.90;;;;;;5117715;28;20031;-66
2022/12/01 01:51:51;;;;;;;67.23;35.07;;;5.30;99.90;;;;;;5117586;28;20039;-66
2022/12/01 01:54:22;;;;;;;47.50;26.35;;;5.30;99.90;;;;;;5117499;28;20346;-66
2022/12/01 01:56:51;;;;;;;37.70;22.13;;;5.30;99.90;;;;;;5117280;28;20071;-66
2022/12/01 01:59:23;;;;;;;30.73;17.65;;;5.30;99.90;;;;;;5117640;28;20035;-66
2022/12/01 02:01:59;;;;;;;29.17;18.13;;;5.30;99.90;;;;;;5099479;28;20039;-66
2022/12/01 02:04:26;;;;;;;29.60;17.80;;;5.20;99.90;;;;;;5099149;28;20051;-66
2022/12/01 02:06:53;;;;;;;34.72;18.90;;;5.30;99.90;;;;;;5117130;28;20032;-66
2022/12/01 02:09:19;;;;;;;37.03;21.13;;;5.40;99.90;;;;;;5117095;28;20568;-66
2022/12/01 02:11:59;;;;;;;37.50;21.05;;;5.40;99.90;;;;;;5117404;28;20054;-66
2022/12/01 02:15:03;;;;;;;36.80;20.60;;;5.40;99.90;;;;;;5117321;28;20031;-66
2022/12/01 02:17:48;;;;;;;31.50;19.52;;;5.30;99.90;;;;;;5086180;28;20107;-66
2022/12/01 02:20:33;;;;;;;37.63;20.85;;;5.30;99.90;;;;;;5116921;28;20057;-66
2022/12/01 02:23:14;;;;;;;46.03;25.17;;;5.30;99.90;;;;;;5117437;28;20364;-66
2022/12/01 02:25:54;;;;;;;43.55;24.25;;;5.30;99.90;;;;;;5116938;28;20110;-66
2022/12/01 02:28:37;;;;;;;39.00;23.95;;;5.30;99.90;;;;;;5116838;28;20019;-66
2022/12/01 02:31:32;;;;;;;48.85;25.33;;;5.30;99.90;;;;;;5116717;28;20028;-66
2022/12/01 02:34:11;;;;;;;45.30;24.55;;;5.40;99.90;;;;;;5116708;28;20076;-66
2022/12/01 02:36:49;;;;;;;36.17;21.70;;;5.40;99.90;;;;;;5116648;28;20042;-66
2022/12/01 02:39:28;;;;;;;33.15;20.52;;;5.40;99.90;;;;;;5116831;28;20432;-66
2022/12/01 02:42:02;;;;;;;34.30;21.48;;;5.50;99.90;;;;;;5116545;28;20027;-66
2022/12/01 02:44:43;;;;;;;33.25;19.45;;;5.50;99.90;;;;;;5116603;28;20030;-66
2022/12/01 02:47:13;;;;;;;41.45;22.80;;;5.50;99.90;;;;;;5116448;28;20115;-66
2022/12/01 02:49:58;;;;;;;43.92;23.42;;;5.50;99.90;;;;;;5116630;28;20028;-66
2022/12/01 02:52:25;;;;;;;41.03;21.85;;;5.40;99.90;;;;;;5116299;28;20549;-66
2022/12/01 02:54:52;;;;;;;34.47;21.00;;;5.40;99.90;;;;;;5116223;28;20042;-66
2022/12/01 02:57:19;;;;;;;37.50;21.83;;;5.40;99.90;;;;;;5116394;28;20028;-66
2022/12/01 02:59:49;;;;;;;37.67;21.40;;;5.40;99.90;;;;;;5116308;28;20542;-66
2022/12/01 03:02:31;;;;;;;36.72;20.20;;;5.40;99.90;;;;;;5116182;28;20019;-66
2022/12/01 03:05:05;;;;;;;32.20;18.92;;;5.40;99.90;;;;;;5116254;28;20538;-66
2022/12/01 03:07:34;;;;;;;31.60;18.70;;;5.40;99.90;;;;;;5115795;28;20535;-66
2022/12/01 03:10:25;;;;;;;41.65;19.80;;;5.30;99.90;;;;;;5115798;28;20031;-66
2022/12/01 03:13:16;;;;;;;37.90;21.02;;;5.30;99.90;;;;;;5097788;28;20122;-66
2022/12/01 03:15:45;;;;;;;;;;;5.30;99.90;;;;;;5116139;28;20552;-66
2022/12/01 03:18:29;;;;;;;34.58;19.23;;;5.30;99.90;;;;;;5115779;28;19916;-66
2022/12/01 03:21:06;;;;;;;38.33;18.90;;;5.30;99.90;;;;;;5115805;28;20030;-66
2022/12/01 03:23:37;;;;;;;28.17;18.33;;;5.40;99.90;;;;;;5115987;28;20048;-66
2022/12/01 03:26:07;;;;;;;31.52;18.83;;;5.40;99.90;;;;;;5115793;28;20036;-66
2022/12/01 03:28:39;;;;;;;31.35;18.88;;;5.40;99.90;;;;;;5115632;28;20035;-66
2022/12/01 03:31:10;;;;;;;30.92;18.23;;;5.40;99.90;;;;;;5114668;28;20028;-66
2022/12/01 03:33:42;;;;;;;30.73;19.17;;;5.40;99.90;;;;;;5115591;28;20019;-66
2022/12/01 03:36:13;;;;;;;28.65;19.02;;;5.30;99.90;;;;;;5115493;28;20027;-66
2022/12/01 03:38:43;;;;;;;31.25;18.80;;;5.40;99.90;;;;;;5115595;28;20031;-66
2022/12/01 03:41:15;;;;;;;33.22;20.38;;;5.40;99.90;;;;;;5115431;28;20081;-66
2022/12/01 03:43:46;;;;;;;30.83;19.05;;;5.50;99.90;;;;;;5115371;28;20427;-66
2022/12/01 03:46:21;;;;;;;29.63;19.02;;;5.40;99.90;;;;;;5115463;28;20031;-66
2022/12/01 03:48:48;;;;;;;33.70;18.88;;;5.50;99.90;;;;;;5115474;28;20020;-66
2022/12/01 03:51:16;;;;;;;43.13;23.63;;;5.40;99.90;;;;;;5115259;28;20062;-66
2022/12/01 03:53:59;;;;;;;34.78;20.58;;;5.40;99.90;;;;;;5115402;28;20057;-66
2022/12/01 03:56:34;;;;;;;34.47;20.48;;;5.40;99.90;;;;;;5115079;28;20039;-66
2022/12/01 03:59:03;;;;;;;39.88;22.13;;;5.40;99.90;;;;;;5115216;28;20539;-66
2022/12/01 04:01:31;;;;;;;48.65;25.27;;;5.40;99.90;;;;;;5115276;28;20102;-66
2022/12/01 04:04:23;;;;;;;44.45;24.05;;;5.40;99.90;;;;;;5115120;28;20425;-66
2022/12/01 04:06:50;;;;;;;41.53;20.60;;;5.40;99.90;;;;;;5110256;28;20039;-66
2022/12/01 04:09:16;;;;;;;32.90;19.55;;;5.30;99.90;;;;;;5115043;28;20020;-66
2022/12/01 04:14:26;;;;;;;50.58;28.23;;;5.00;99.90;;;;;;5096493;28;20036;-66
2022/12/01 04:16:52;;;;;;;98.38;46.97;;;5.00;99.90;;;;;;5114984;28;20032;-66
2022/12/01 04:19:17;;;;;;;87.43;42.90;;;5.10;99.90;;;;;;5114741;28;20089;-66
2022/12/01 04:21:43;;;;;;;39.58;24.90;;;5.20;99.90;;;;;;5114967;28;20072;-66
2022/12/01 04:24:11;;;;;;;99.05;45.60;;;5.30;99.90;;;;;;5096901;28;20590;-66
2022/12/01 04:26:36;;;;;;;168.05;74.50;;;5.20;99.90;;;;;;5114819;28;20088;-66
2022/12/01 04:29:07;;;;;;;54.78;29.83;;;5.10;99.90;;;;;;5114841;28;20114;-66
2022/12/01 04:31:33;;;;;;;59.00;31.52;;;5.00;99.90;;;;;;5114779;28;20112;-66
2022/12/01 04:33:59;;;;;;;67.10;34.97;;;4.90;99.90;;;;;;5114739;28;20032;-66
2022/12/01 04:36:28;;;;;;;48.17;26.83;;;5.00;99.90;;;;;;5115010;28;20038;-66
2022/12/01 04:38:54;;;;;;;51.70;27.80;;;5.10;99.90;;;;;;5114813;28;20035;-66
2022/12/01 04:41:20;;;;;;;53.67;29.42;;;5.10;99.90;;;;;;5116112;28;20020;-66
2022/12/01 04:43:45;;;;;;;49.47;27.00;;;5.10;99.90;;;;;;5118791;28;20020;-66
2022/12/01 04:46:11;;;;;;;38.38;23.05;;;5.20;99.90;;;;;;5118870;28;20059;-66
2022/12/01 04:48:38;;;;;;;45.85;25.35;;;5.20;99.90;;;;;;5118847;28;20027;-66
2022/12/01 04:51:06;;;;;;;46.40;23.75;;;5.20;99.90;;;;;;5118797;28;20451;-66
2022/12/01 04:53:32;;;;;;;38.40;21.40;;;5.30;99.90;;;;;;5118701;28;20353;-66
2022/12/01 04:55:59;;;;;;;31.42;19.25;;;5.30;99.90;;;;;;5118418;28;20084;-66
2022/12/01 04:58:32;;;;;;;30.88;19.08;;;5.40;99.90;;;;;;5118705;28;20019;-66
2022/12/01 05:01:06;;;;;;;30.40;18.67;;;5.40;99.90;;;;;;5118668;28;20028;-66
2022/12/01 05:03:36;;;;;;;29.05;18.30;;;5.40;99.90;;;;;;5118385;28;20099;-66
2022/12/01 05:06:08;;;;;;;29.17;18.20;;;5.40;99.90;;;;;;5118496;28;20035;-66
2022/12/01 05:08:34;;;;;;;28.30;17.90;;;5.40;99.90;;;;;;5118228;28;20055;-66
2022/12/01 05:11:00;;;;;;;24.35;16.95;;;5.40;99.90;;;;;;5118305;28;20038;-66
2022/12/01 05:13:27;;;;;;;25.83;17.63;;;5.50;99.90;;;;;;5118527;28;20107;-66
2022/12/01 05:15:53;;;;;;;31.77;18.10;;;5.40;99.90;;;;;;5117894;28;20538;-66
2022/12/01 05:18:19;;;;;;;36.95;21.02;;;5.30;99.90;;;;;;5118115;28;20035;-66
2022/12/01 05:20:57;;;;;;;33.22;19.85;;;5.30;99.90;;;;;;5118161;28;20019;-66
2022/12/01 05:23:28;;;;;;;36.55;20.30;;;5.30;99.90;;;;;;5118045;28;20020;-66
2022/12/01 05:25:55;;;;;;;46.80;23.70;;;5.30;99.90;;;;;;5118199;28;20465;-66
2022/12/01 05:28:23;;;;;;;39.50;23.08;;;5.40;99.90;;;;;;5117967;28;20036;-66
2022/12/01 05:30:50;;;;;;;36.83;20.23;;;5.40;99.90;;;;;;5117761;28;20114;-66
2022/12/01 05:33:16;;;;;;;29.58;17.40;;;5.40;99.90;;;;;;5117975;28;20427;-66
2022/12/01 05:35:42;;;;;;;21.60;15.23;;;5.40;99.90;;;;;;5117731;28;20036;-66
2022/12/01 05:38:09;;;;;;;22.48;14.80;;;5.30;99.90;;;;;;5099736;28;20024;-66
2022/12/01 05:40:35;;;;;;;26.08;16.13;;;5.30;99.90;;;;;;5117835;28;20023;-66
2022/12/01 05:43:02;;;;;;;21.05;15.45;;;5.30;99.90;;;;;;5117582;28;20046;-66
2022/12/01 05:45:28;;;;;;;22.10;15.63;;;5.20;99.90;;;;;;5117654;28;20378;-66
2022/12/01 05:47:58;;;;;;;22.08;15.75;;;5.10;99.90;;;;;;5117560;28;20031;-66
2022/12/01 05:50:25;;;;;;;22.35;16.00;;;5.10;99.90;;;;;;5117660;28;20056;-66
2022/12/01 05:52:54;;;;;;;26.08;17.73;;;5.10;99.90;;;;;;5116585;28;20055;-66
2022/12/01 05:55:20;;;;;;;25.85;18.02;;;5.20;99.90;;;;;;5117433;28;20072;-66
2022/12/01 05:57:46;;;;;;;25.73;17.98;;;5.20;99.90;;;;;;5117396;28;20030;-66
2022/12/01 06:00:14;;;;;;;24.58;20.27;;;5.10;99.90;;;;;;5117460;28;20019;-66
2022/12/01 06:02:40;;;;;;;23.30;15.88;;;5.00;99.90;;;;;;5117310;28;20362;-66
2022/12/01 06:05:08;;;;;;;28.42;18.60;;;5.00;99.90;;;;;;5117599;28;20112;-66
2022/12/01 06:07:34;;;;;;;24.10;17.13;;;5.10;99.90;;;;;;5117018;28;20485;-66
2022/12/01 06:10:01;;;;;;;23.65;16.23;;;5.20;99.90;;;;;;5117179;28;20026;-66
2022/12/01 06:12:27;;;;;;;22.63;15.70;;;5.20;99.90;;;;;;5116756;28;20059;-66
2022/12/01 06:14:53;;;;;;;27.08;17.90;;;5.20;99.90;;;;;;5122661;27;20050;-66
2022/12/01 06:17:19;;;;;;;31.38;17.25;;;5.20;99.90;;;;;;5137927;27;20510;-66
2022/12/01 06:19:46;;;;;;;37.72;20.98;;;5.10;99.90;;;;;;5137966;27;20019;-66
2022/12/01 06:22:12;;;;;;;40.35;21.67;;;5.10;99.90;;;;;;5138322;27;20031;-66
2022/12/01 06:24:38;;;;;;;32.85;19.92;;;5.20;99.90;;;;;;5116746;27;20048;-66
2022/12/01 06:27:04;;;;;;;36.28;20.60;;;5.20;99.90;;;;;;5104555;28;20086;-66
2022/12/01 06:29:30;;;;;;;34.47;19.33;;;5.30;99.90;;;;;;5113219;28;20244;-66
2022/12/01 06:31:56;;;;;;;39.80;21.25;;;5.30;99.90;;;;;;5110568;28;20035;-66
2022/12/01 06:34:22;;;;;;;41.38;22.35;;;5.30;99.90;;;;;;5109684;27;20361;-66
2022/12/01 06:36:48;;;;;;;25.92;16.98;;;5.10;99.90;;;;;;5105142;28;20044;-66
2022/12/01 06:39:15;;;;;;;26.23;17.48;;;5.10;99.90;;;;;;5114371;28;20098;-66
2022/12/01 06:41:42;;;;;;;34.15;20.08;;;5.20;99.90;;;;;;5107722;28;20103;-66
2022/12/01 06:44:08;;;;;;;66.28;31.85;;;5.30;99.90;;;;;;5095893;28;20024;-66
2022/12/01 06:46:34;;;;;;;77.38;36.53;;;5.30;99.90;;;;;;5123259;27;20046;-66
2022/12/01 06:48:59;;;;;;;73.10;34.33;;;5.30;99.90;;;;;;5096316;28;20036;-66
2022/12/01 06:51:26;;;;;;;83.85;35.10;;;5.40;99.90;;;;;;5104083;27;20034;-66
2022/12/01 06:53:55;;;;;;;90.78;36.17;;;5.40;99.90;;;;;;5113239;27;20032;-66
2022/12/01 06:56:21;;;;;;;92.47;35.88;;;5.50;99.90;;;;;;5102188;27;20028;-66
2022/12/01 06:58:51;;;;;;;69.43;29.73;;;5.50;99.90;;;;;;5104173;28;20476;-66
2022/12/01 07:01:18;;;;;;;58.65;29.35;;;5.40;99.90;;;;;;5106261;28;20066;-66
2022/12/01 07:03:48;;;;;;;47.58;25.30;;;5.40;99.90;;;;;;5104548;28;20012;-66
2022/12/01 07:06:15;;;;;;;52.10;25.00;;;5.40;99.90;;;;;;5109228;27;20023;-66
2022/12/01 07:08:40;;;;;;;47.03;24.67;;;5.50;99.90;;;;;;5112758;27;20570;-66
2022/12/01 07:11:11;;;;;;;38.33;22.15;;;5.50;99.90;;;;;;5109821;27;20055;-66
2022/12/01 07:13:48;;;;;;;57.90;29.08;;;5.60;99.90;;;;;;5107015;27;20382;-66
2022/12/01 07:16:14;;;;;;;91.60;40.35;;;5.60;99.90;;;;;;5104721;27;20470;-66
2022/12/01 07:18:43;;;;;;;96.43;38.72;;;5.60;99.90;;;;;;5108437;27;20103;-66
2022/12/01 07:21:11;;;;;;;91.28;36.22;;;5.70;99.90;;;;;;5088538;27;20032;-66
2022/12/01 07:23:38;;;;;;;111.47;42.50;;;5.70;99.90;;;;;;5108352;28;20026;-66
2022/12/01 07:26:13;;;;;;;96.95;37.13;;;5.60;99.90;;;;;;5114915;28;20107;-66
2022/12/01 07:28:39;;;;;;;105.70;40.90;;;5.70;99.90;;;;;;5117465;27;20027;-66
2022/12/01 07:31:17;;;;;;;67.68;28.17;;;5.70;99.90;;;;;;5115606;28;20032;-66
2022/12/01 07:33:43;;;;;;;94.10;37.88;;;5.60;99.90;;;;;;5101053;28;20024;-66
2022/12/01 07:36:10;;;;;;;83.30;35.15;;;5.60;99.90;;;;;;5110111;28;20027;-66
2022/12/01 07:38:38;;;;;;;55.33;28.17;;;5.70;99.90;;;;;;5097366;28;20027;-66
2022/12/01 07:41:09;;;;;;;63.58;30.15;;;5.60;99.90;;;;;;5099483;28;20021;-66
2022/12/01 07:43:35;;;;;;;50.97;28.77;;;5.60;99.90;;;;;;5101317;28;20157;-66
2022/12/01 07:46:05;;;;;;;28.90;17.65;;;5.60;99.90;;;;;;5109939;28;20032;-66
2022/12/01 07:48:31;;;;;;;26.20;16.65;;;5.50;99.90;;;;;;5110171;28;20247;-66
2022/12/01 07:50:56;;;;;;;32.33;17.33;;;5.50;99.90;;;;;;5103415;28;20027;-66
2022/12/01 07:53:22;;;;;;;41.65;21.77;;;5.50;99.90;;;;;;5112837;27;20035;-66
2022/12/01 07:55:52;;;;;;;38.85;21.88;;;5.60;99.90;;;;;;5109955;27;20066;-66
2022/12/01 07:58:18;;;;;;;42.78;19.92;;;5.60;99.90;;;;;;5119704;27;20460;-66
2022/12/01 08:00:47;;;;;;;70.03;36.80;;;5.50;99.90;;;;;;5112597;28;20102;-66
2022/12/01 08:03:13;;;;;;;51.00;25.42;;;5.50;99.90;;;;;;5105510;27;20027;-66
2022/12/01 08:05:39;;;;;;;46.85;26.42;;;5.40;99.90;;;;;;5107464;27;20088;-66
2022/12/01 08:08:05;;;;;;;63.75;31.50;;;5.40;99.90;;;;;;5113197;28;20024;-66
2022/12/01 08:10:31;;;;;;;64.03;30.55;;;5.50;99.90;;;;;;5110547;27;20380;-66
2022/12/01 08:12:57;;;;;;;59.53;28.33;;;5.50;99.90;;;;;;5109729;28;20027;-66
2022/12/01 08:15:23;;;;;;;72.30;29.77;;;5.60;99.90;;;;;;5100606;28;20086;-66
2022/12/01 08:17:49;;;;;;;69.60;30.80;;;5.60;99.90;;;;;;5101660;28;20583;-66
2022/12/01 08:20:20;;;;;;;52.42;28.65;;;5.70;99.90;;;;;;5104325;27;20091;-66
2022/12/01 08:22:46;;;;;;;48.15;25.13;;;5.70;99.90;;;;;;5088934;28;20399;-66
2022/12/01 08:25:12;;;;;;;90.30;38.55;;;5.70;99.90;;;;;;5099127;28;20049;-66
2022/12/01 08:27:38;;;;;;;75.20;34.05;;;5.80;99.90;;;;;;5102035;28;20039;-66
2022/12/01 08:30:05;;;;;;;68.10;31.63;;;5.80;99.90;;;;;;5107193;28;20027;-66
2022/12/01 08:32:31;;;;;;;53.58;26.38;;;5.80;99.90;;;;;;5126756;28;20031;-66
2022/12/01 08:34:57;;;;;;;64.50;27.05;;;5.90;99.90;;;;;;5102167;28;20079;-66
2022/12/01 08:37:23;;;;;;;54.92;24.63;;;6.00;99.90;;;;;;5102963;28;20035;-66
2022/12/01 08:39:48;;;;;;;46.42;23.33;;;6.10;99.90;;;;;;5098932;28;20040;-66
2022/12/01 08:42:14;;;;;;;18.15;11.50;;;6.10;99.90;;;;;;5106935;28;20020;-66
2022/12/01 08:44:40;;;;;;;26.77;16.77;;;5.90;99.90;;;;;;5104513;28;20161;-67
2022/12/01 08:47:09;;;;;;;34.58;19.67;;;6.00;99.90;;;;;;5105918;28;20313;-66
2022/12/01 08:49:35;;;;;;;20.70;13.18;;;6.00;99.90;;;;;;5105845;28;20048;-66
2022/12/01 08:52:01;;;;;;;27.20;15.73;;;6.00;99.90;;;;;;5097243;28;20083;-66
2022/12/01 08:54:27;;;;;;;40.20;16.30;;;6.10;99.90;;;;;;5100415;28;20093;-66
2022/12/01 08:56:53;;;;;;;39.40;18.42;;;5.80;99.90;;;;;;5108934;28;20031;-66
2022/12/01 08:59:18;;;;;;;35.88;17.92;;;5.90;99.90;;;;;;5107676;28;20020;-66
2022/12/01 09:01:54;;;;;;;30.70;14.07;;;6.00;99.90;;;;;;5106516;28;20031;-66
2022/12/01 09:04:22;;;;;;;38.13;19.25;;;6.00;99.90;;;;;;5103066;28;20055;-66
2022/12/01 09:06:49;;;;;;;43.90;17.58;;;6.20;99.90;;;;;;5128667;28;20027;-66
2022/12/01 09:09:18;;;;;;;30.13;15.32;;;6.20;99.90;;;;;;5124654;28;20051;-66
2022/12/01 09:11:45;;;;;;;50.17;22.65;;;6.30;99.90;;;;;;5109783;28;20034;-66
2022/12/01 09:14:13;;;;;;;55.10;24.25;;;6.20;99.90;;;;;;5100952;28;20390;-66
2022/12/01 09:16:40;;;;;;;37.63;17.42;;;6.30;99.90;;;;;;5101055;28;20526;-66
2022/12/01 09:19:07;;;;;;;37.70;18.83;;;6.20;99.90;;;;;;5119834;28;20074;-66
2022/12/01 09:21:36;;;;;;;36.42;18.30;;;6.20;99.90;;;;;;5114086;28;20034;-66
2022/12/01 09:24:02;;;;;;;36.08;16.40;;;6.20;99.90;;;;;;5113365;28;20389;-66
2022/12/01 09:26:29;;;;;;;39.75;19.02;;;6.20;99.90;;;;;;5110805;28;20027;-66
2022/12/01 09:28:57;;;;;;;35.30;16.50;;;6.30;99.90;;;;;;5117080;28;20076;-66
2022/12/01 09:31:23;;;;;;;26.08;15.20;;;6.40;99.90;;;;;;5105791;28;20030;-66
2022/12/01 09:33:58;;;;;;;31.70;14.65;;;6.40;99.90;;;;;;5108981;27;20055;-66
2022/12/01 09:36:25;;;;;;;37.33;16.85;;;6.40;99.90;;;;;;5115441;27;20432;-66
2022/12/01 09:38:51;;;;;;;28.95;13.85;;;6.40;99.90;;;;;;5116030;27;20069;-66
2022/12/01 09:41:32;;;;;;;28.05;14.32;;;6.20;99.90;;;;;;5112119;27;20389;-66
2022/12/01 09:44:19;;;;;;;26.13;13.77;;;6.30;99.90;;;;;;5121224;27;20020;-66
2022/12/01 09:47:09;;;;;;;26.08;14.00;;;6.20;99.90;;;;;;5110196;27;20166;-66
2022/12/01 09:50:09;;;;;;;23.27;13.23;;;6.30;99.90;;;;;;5113165;28;20027;-66
2022/12/01 09:52:49;;;;;;;23.75;13.48;;;6.30;99.90;;;;;;5101690;28;20039;-66
2022/12/01 09:55:17;;;;;;;26.20;13.80;;;6.30;99.90;;;;;;5096844;28;20035;-66
2022/12/01 09:57:54;;;;;;;28.38;14.45;;;6.30;99.90;;;;;;5116273;28;20054;-66
2022/12/01 10:00:26;;;;;;;24.65;14.48;;;6.20;99.90;;;;;;5106553;27;20409;-66
2022/12/01 10:03:10;;;;;;;36.65;16.23;;;6.30;99.90;;;;;;5105938;27;20074;-66
2022/12/01 10:05:47;;;;;;;26.90;14.75;;;6.20;99.90;;;;;;5117013;27;20521;-66
2022/12/01 10:08:20;;;;;;;35.13;13.45;;;6.20;99.90;;;;;;5128575;27;20031;-66
2022/12/01 10:10:48;;;;;;;30.20;13.52;;;6.10;99.90;;;;;;5121272;27;20460;-66
2022/12/01 10:13:24;;;;;;;23.42;13.68;;;6.20;99.90;;;;;;5108613;27;20393;-66
2022/12/01 10:15:57;;;;;;;30.08;16.63;;;6.10;99.90;;;;;;5100018;28;20040;-66
2022/12/01 10:18:58;;;;;;;24.33;13.90;;;6.20;99.90;;;;;;5104134;28;20377;-66
2022/12/01 10:21:38;;;;;;;32.35;14.10;;;6.30;99.90;;;;;;5088774;28;20052;-66
2022/12/01 10:24:13;;;;;;;;;;;6.30;99.90;;;;;;5107204;27;20115;-67
2022/12/01 10:27:12;;;;;;;32.35;12.93;;;6.40;99.90;;;;;;5106033;27;19912;-67
2022/12/01 10:29:55;;;;;;;30.88;12.23;;;6.30;99.90;;;;;;5112168;27;20123;-66
2022/12/01 10:32:38;;;;;;;28.65;14.18;;;6.20;99.90;;;;;;5115138;27;20027;-66
2022/12/01 10:35:04;;;;;;;37.20;17.67;;;6.20;99.90;;;;;;5100013;28;20034;-66
2022/12/01 10:37:30;;;;;;;35.17;15.27;;;6.30;99.90;;;;;;5100908;28;20020;-66
2022/12/01 10:39:57;;;;;;;40.85;17.65;;;6.30;99.90;;;;;;5105845;28;20031;-66
2022/12/01 10:42:41;;;;;;;41.05;16.42;;;6.40;99.90;;;;;;5104055;27;20049;-66
2022/12/01 10:45:25;;;;;;;31.23;13.98;;;6.40;99.90;;;;;;5106191;27;20023;-66
2022/12/01 10:48:16;;;;;;;26.63;14.27;;;6.40;99.90;;;;;;5105378;27;20123;-66
2022/12/01 10:50:48;;;;;;;30.25;15.68;;;6.40;99.90;;;;;;5100879;28;20028;-67
2022/12/01 10:53:32;;;;;;;28.73;14.82;;;6.50;99.90;;;;;;5098332;28;20028;-66
2022/12/01 10:56:03;;;;;;;37.15;17.63;;;6.50;99.90;;;;;;5101978;27;20381;-65
2022/12/01 10:58:38;;;;;;;40.42;21.02;;;6.60;99.90;;;;;;5094146;28;20053;-65
2022/12/01 11:01:05;;;;;;;27.65;14.98;;;6.60;99.90;;;;;;5105394;28;20027;-66
2022/12/01 11:03:34;;;;;;;32.70;17.10;;;6.70;99.90;;;;;;5085502;28;20035;-66
2022/12/01 11:06:02;;;;;;;28.67;15.20;;;6.70;99.90;;;;;;5105327;28;20027;-65
2022/12/01 11:08:44;;;;;;;35.92;15.02;;;6.70;99.90;;;;;;5104942;28;20035;-66
2022/12/01 11:11:32;;;;;;;43.90;17.98;;;6.70;99.90;;;;;;5091841;27;20030;-65
2022/12/01 11:14:03;;;;;;;27.08;13.65;;;6.70;99.90;;;;;;5110552;27;20015;-65
2022/12/01 11:16:37;;;;;;;14.18;8.85;;;6.70;99.90;;;;;;5105379;27;20128;-65
2022/12/01 11:19:08;;;;;;;13.90;8.40;;;6.70;99.90;;;;;;5105158;27;20023;-65
2022/12/01 11:21:43;;;;;;;16.92;9.18;;;6.60;99.90;;;;;;5111820;28;20032;-65
2022/12/01 11:24:53;;;;;;;18.73;9.60;;;6.60;99.90;;;;;;5097383;28;20027;-65
2022/12/01 11:27:22;;;;;;;22.42;12.45;;;6.60;99.90;;;;;;5006849;28;20034;-65
2022/12/01 11:29:51;;;;;;;26.23;13.82;;;6.60;99.90;;;;;;5003409;28;20037;-65
2022/12/01 11:32:38;;;;;;;29.77;15.40;;;6.70;99.90;;;;;;5013906;28;20041;-65
2022/12/01 11:35:12;;;;;;;34.08;15.13;;;6.80;99.90;;;;;;5030624;28;20048;-65
2022/12/01 11:37:52;;;;;;;19.88;11.45;;;6.70;99.90;;;;;;5032478;28;20109;-65
2022/12/01 11:40:23;;;;;;;21.65;11.48;;;6.60;99.90;;;;;;5028795;28;20120;-65
2022/12/01 11:42:50;;;;;;;;;;;6.50;99.90;;;;;;5024553;28;20179;-65
2022/12/01 11:45:19;;;;;;;15.02;9.02;;;6.50;99.90;;;;;;5027728;28;19916;-65
2022/12/01 11:47:59;;;;;;;25.27;11.57;;;6.60;99.90;;;;;;5031613;28;20033;-65
2022/12/01 11:50:28;;;;;;;50.63;14.02;;;6.50;99.90;;;;;;5030447;28;20507;-65
2022/12/01 11:52:54;;;;;;;44.03;13.05;;;6.50;99.90;;;;;;5015502;28;20550;-65
2022/12/01 11:55:26;;;;;;;42.17;15.20;;;6.50;99.90;;;;;;5031562;28;20037;-65
2022/12/01 11:57:59;;;;;;;30.00;13.63;;;6.60;99.90;;;;;;5074316;27;20105;-65
2022/12/01 12:00:46;;;;;;;32.70;15.35;;;6.50;99.90;;;;;;5108787;27;20023;-65
2022/12/01 12:03:33;;;;;;;19.42;10.13;;;6.50;99.90;;;;;;5093468;28;20028;-65
2022/12/01 12:06:12;;;;;;;24.63;11.52;;;6.50;99.90;;;;;;5092147;28;20046;-65
2022/12/01 12:09:03;;;;;;;21.25;11.98;;;6.50;99.90;;;;;;5106269;28;20020;-65
2022/12/01 12:11:48;;;;;;;22.48;12.50;;;6.50;99.90;;;;;;5108347;28;20030;-65
2022/12/01 12:14:42;;;;;;;33.30;16.77;;;6.50;99.90;;;;;;5110223;27;20488;-65
2022/12/01 12:17:26;;;;;;;22.73;12.80;;;6.50;99.90;;;;;;5093572;28;20136;-65
2022/12/01 12:20:06;;;;;;;32.58;14.23;;;6.50;99.90;;;;;;5102047;28;20035;-65
2022/12/01 12:23:15;;;;;;;23.17;13.82;;;6.50;99.90;;;;;;5111121;28;20049;-65
2022/12/01 12:25:55;;;;;;;26.48;13.70;;;6.40;99.90;;;;;;5095670;28;20036;-65
2022/12/01 12:28:32;;;;;;;25.10;13.30;;;6.40;99.90;;;;;;5098440;28;20021;-65
2022/12/01 12:31:37;;;;;;;32.45;13.15;;;6.40;99.90;;;;;;5097553;28;20055;-65
2022/12/01 12:34:31;;;;;;;45.92;16.17;;;6.40;99.90;;;;;;5096717;28;20135;-65
2022/12/01 12:37:34;;;;;;;29.35;13.88;;;6.40;99.90;;;;;;5099057;28;20043;-65
2022/12/01 12:40:00;;;;;;;27.30;14.18;;;6.40;99.90;;;;;;5110084;28;20037;-65
2022/12/01 12:42:45;;;;;;;25.35;14.95;;;6.40;99.90;;;;;;5101973;28;20031;-65
2022/12/01 12:45:47;;;;;;;25.50;14.75;;;6.40;99.90;;;;;;5104823;28;20114;-66
2022/12/01 12:48:31;;;;;;;25.98;13.93;;;6.40;99.90;;;;;;5105327;28;20059;-66
2022/12/01 12:51:19;;;;;;;21.92;13.15;;;6.30;99.90;;;;;;5112851;28;20023;-66
2022/12/01 12:54:11;;;;;;;43.80;18.73;;;6.40;99.90;;;;;;5107632;28;20027;-65
2022/12/01 12:56:42;;;;;;;45.95;16.38;;;6.50;99.90;;;;;;5082670;28;20044;-65
2022/12/01 12:59:20;;;;;;;46.30;17.88;;;6.40;99.90;;;;;;5097346;28;20393;-65
2022/12/01 13:02:19;;;;;;;29.48;14.98;;;6.40;99.90;;;;;;5098042;28;20358;-65
2022/12/01 13:04:48;;;;;;;38.92;16.98;;;6.50;99.90;;;;;;5094547;28;20539;-65